createdAt,value
2023-04-28T00:00:58.797Z,97420.78
2023-04-28T00:03:34.347Z,97399.89
2023-04-28T00:06:07.228Z,97375.02
2023-04-28T00:08:35.809Z,97362.67
2023-04-28T00:11:04.648Z,97350.65
2023-04-28T00:13:33.448Z,97342.05
2023-04-28T00:16:03.073Z,97335.89
2023-04-28T00:18:33.838Z,97330.31
2023-04-28T00:21:03.212Z,97319.69
2023-04-28T00:23:33.589Z,97311.31
2023-04-28T00:26:01.452Z,97307.05
2023-04-28T00:28:34.497Z,97310.90
2023-04-28T00:31:11.579Z,97306.54
2023-04-28T00:33:41.957Z,97307.20
2023-04-28T00:36:12.193Z,97307.58
2023-04-28T00:38:42.629Z,97309.77
2023-04-28T00:41:12.975Z,97298.63
2023-04-28T00:43:49.661Z,97288.70
2023-04-28T00:46:35.092Z,97283.34
2023-04-28T00:49:04.731Z,97288.04
2023-04-28T00:51:34.004Z,97295.45
2023-04-28T00:54:06.847Z,97292.45
2023-04-28T00:56:36.424Z,97296.23
2023-04-28T00:59:07.520Z,97293.89
2023-04-28T01:01:36.987Z,97291.52
2023-04-28T01:04:05.362Z,97286.77
2023-04-28T01:06:38.007Z,97277.09
2023-04-28T01:09:07.740Z,97271.59
2023-04-28T01:11:38.760Z,97264.78
2023-04-28T01:14:13.640Z,97264.92
2023-04-28T01:16:44.933Z,97266.16
2023-04-28T01:19:23.663Z,97267.42
2023-04-28T01:21:52.654Z,97267.23
2023-04-28T01:24:25.133Z,97262.39
2023-04-28T01:26:56.803Z,97250.64
2023-04-28T01:29:25.932Z,97251.04
2023-04-28T01:31:54.520Z,97244.18
2023-04-28T01:34:30.759Z,97239.34
2023-04-28T01:37:04.544Z,97229.55
2023-04-28T01:39:35.802Z,97215.92
2023-04-28T01:42:08.117Z,97216.77
2023-04-28T01:44:36.432Z,97219.73
2023-04-28T01:47:05.911Z,97219.85
2023-04-28T01:49:36.492Z,97219.09
2023-04-28T01:52:07.551Z,97213.48
2023-04-28T01:54:37.161Z,97209.81
2023-04-28T01:57:09.864Z,97202.55
2023-04-28T01:59:41.908Z,97205.45
2023-04-28T02:02:14.913Z,97214.09
2023-04-28T02:04:45.103Z,97208.73
2023-04-28T02:07:30.229Z,97212.91
2023-04-28T02:10:01.718Z,97215.70
2023-04-28T02:12:40.486Z,97218.05
2023-04-28T02:15:15.023Z,97223.27
2023-04-28T02:17:47.142Z,97223.64
2023-04-28T02:20:16.604Z,97219.70
2023-04-28T02:22:45.895Z,97231.59
2023-04-28T02:25:16.851Z,97233.39
2023-04-28T02:27:46.209Z,97238.77
2023-04-28T02:30:21.028Z,97236.77
2023-04-28T02:33:04.555Z,97236.64
2023-04-28T02:35:32.943Z,97232.02
2023-04-28T02:38:03.780Z,97227.70
2023-04-28T02:40:34.324Z,97223.95
2023-04-28T02:43:03.541Z,97223.54
2023-04-28T02:45:35.356Z,97228.01
2023-04-28T02:48:08.829Z,97226.52
2023-04-28T02:50:41.794Z,97224.19
2023-04-28T02:53:11.432Z,97213.84
2023-04-28T02:55:40.331Z,97214.10
2023-04-28T02:58:09.911Z,97208.67
2023-04-28T03:00:41.623Z,97209.20
2023-04-28T03:03:12.495Z,97208.36
2023-04-28T03:05:43.272Z,97208.44
2023-04-28T03:08:13.241Z,97208.50
2023-04-28T03:10:43.527Z,97207.17
2023-04-28T03:13:13.760Z,97204.14
2023-04-28T03:15:42.720Z,97202.80
2023-04-28T03:18:11.939Z,97193.35
2023-04-28T03:21:02.215Z,97184.19
2023-04-28T03:23:39.007Z,97176.96
2023-04-28T03:26:10.911Z,97169.67
2023-04-28T03:28:43.652Z,97163.84
2023-04-28T03:31:55.411Z,97154.27
2023-04-28T03:34:23.651Z,97154.17
2023-04-28T03:37:02.560Z,97146.73
2023-04-28T03:39:33.167Z,97133.50
2023-04-28T03:42:39.393Z,97125.07
2023-04-28T03:45:16.201Z,97115.38
2023-04-28T03:47:45.796Z,97111.39
2023-04-28T03:50:34.317Z,97097.08
2023-04-28T03:53:23.590Z,97077.84
2023-04-28T03:56:02.769Z,97073.31
2023-04-28T03:58:36.033Z,97069.45
2023-04-28T04:01:05.742Z,97070.86
2023-04-28T04:03:41.917Z,97064.15
2023-04-28T04:06:16.110Z,97045.48
2023-04-28T04:09:10.053Z,97034.38
2023-04-28T04:11:42.355Z,97023.20
2023-04-28T04:14:19.386Z,97009.05
2023-04-28T04:16:49.051Z,96997.52
2023-04-28T04:19:30.357Z,96992.74
2023-04-28T04:22:16.396Z,96994.55
2023-04-28T04:25:45.145Z,96984.27
2023-04-28T04:28:44.822Z,96979.47
2023-04-28T04:31:36.437Z,96983.70
2023-04-28T04:34:26.517Z,96971.52
2023-04-28T04:37:22.507Z,96950.79
2023-04-28T04:40:37.357Z,96950.79
2023-04-28T04:43:56.608Z,96953.11
2023-04-28T04:47:07.963Z,96960.22
2023-04-28T04:50:13.131Z,96974.53
2023-04-28T04:53:33.465Z,96979.80
2023-04-28T04:57:03.064Z,96982.19
2023-04-28T05:00:35.087Z,96971.12
2023-04-28T05:03:07.857Z,96968.77
2023-04-28T05:06:04.561Z,96971.77
2023-04-28T05:09:16.481Z,96992.95
2023-04-28T05:11:59.389Z,97000.24
2023-04-28T05:15:08.889Z,97004.08
2023-04-28T05:17:40.533Z,97006.37
2023-04-28T05:20:55.635Z,97012.05
2023-04-28T05:23:30.537Z,97008.40
2023-04-28T05:26:00.873Z,97009.88
2023-04-28T05:29:36.687Z,97010.98
2023-04-28T05:32:34.154Z,97011.34
2023-04-28T05:35:56.146Z,97020.77
2023-04-28T05:39:06.689Z,97026.37
2023-04-28T05:42:00.622Z,97028.68
2023-04-28T05:44:46.095Z,97040.24
2023-04-28T05:47:35.444Z,97047.58
2023-04-28T05:50:57.122Z,97052.55
2023-04-28T05:53:59.317Z,97071.61
2023-04-28T05:57:10.736Z,97065.45
2023-04-28T06:00:24.417Z,97062.92
2023-04-28T06:04:33.979Z,97064.71
2023-04-28T06:07:23.376Z,97073.96
2023-04-28T06:09:58.348Z,97073.86
2023-04-28T06:12:32.276Z,97074.52
2023-04-28T06:15:59.356Z,97073.27
2023-04-28T06:18:51.477Z,97103.95
2023-04-28T06:22:19.208Z,97133.74
2023-04-28T06:25:15.967Z,97144.55
2023-04-28T06:28:20.423Z,97159.93
2023-04-28T06:31:48.994Z,97169.27
2023-04-28T06:34:58.588Z,97184.73
2023-04-28T06:38:42.491Z,97188.41
2023-04-28T06:41:53.547Z,97179.27
2023-04-28T06:49:08.080Z,97056.33
2023-04-28T06:53:15.157Z,96912.16
2023-04-28T06:57:14.190Z,96931.66
2023-04-28T07:01:09.419Z,96925.81
2023-04-28T07:04:42.282Z,96932.55
2023-04-28T07:08:18.651Z,96933.37
2023-04-28T07:12:29.138Z,96918.20
2023-04-28T07:15:58.360Z,96919.35
2023-04-28T07:19:47.543Z,96927.08
2023-04-28T07:23:39.351Z,96915.74
2023-04-28T07:27:35.753Z,96911.14
2023-04-28T07:30:29.201Z,96914.61
2023-04-28T07:33:31.166Z,96920.70
2023-04-28T07:36:41.669Z,96926.89
2023-04-28T07:39:51.767Z,96934.95
2023-04-28T07:42:35.468Z,96937.28
2023-04-28T07:45:28.468Z,96936.96
2023-04-28T07:48:43.507Z,96931.48
2023-04-28T07:51:45.102Z,96924.78
2023-04-28T07:58:57.221Z,96812.67
2023-04-28T08:02:52.343Z,96680.27
2023-04-28T08:06:19.284Z,96702.02
2023-04-28T08:09:44.270Z,96731.38
2023-04-28T08:13:14.248Z,96724.70
2023-04-28T08:16:52.099Z,96737.55
2023-04-28T08:20:26.820Z,96745.75
2023-04-28T08:23:01.097Z,96759.27
2023-04-28T08:25:48.691Z,96787.55
2023-04-28T08:28:42.410Z,96813.58
2023-04-28T08:32:14.316Z,96846.23
2023-04-28T08:35:07.494Z,96866.98
2023-04-28T08:37:39.299Z,96887.84
2023-04-28T08:40:33.770Z,96891.97
2023-04-28T08:43:15.456Z,96893.98
2023-04-28T08:45:45.616Z,96891.48
2023-04-28T08:48:20.982Z,96910.45
2023-04-28T08:50:55.301Z,96910.98
2023-04-28T08:53:59.496Z,96923.13
2023-04-28T08:56:29.715Z,96930.10
2023-04-28T08:59:02.716Z,96942.41
2023-04-28T09:01:36.836Z,96940.08
2023-04-28T09:04:05.717Z,96963.00
2023-04-28T09:07:03.206Z,96983.22
2023-04-28T09:09:37.040Z,96991.05
2023-04-28T09:12:38.425Z,97004.67
2023-04-28T09:15:15.284Z,97012.55
2023-04-28T09:17:54.510Z,97019.29
2023-04-28T09:20:30.258Z,97018.30
2023-04-28T09:23:51.496Z,97015.40
2023-04-28T09:26:26.419Z,97020.42
2023-04-28T09:29:15.114Z,97022.00
2023-04-28T09:31:49.865Z,97006.08
2023-04-28T09:34:19.152Z,96999.61
2023-04-28T09:37:19.730Z,96995.98
2023-04-28T09:39:55.138Z,96988.33
2023-04-28T09:42:50.701Z,96970.64
2023-04-28T09:45:26.089Z,96962.91
2023-04-28T09:51:38.245Z,96964.92
2023-04-28T09:54:09.464Z,96955.91
2023-04-28T09:56:46.092Z,96952.66
2023-04-28T09:59:22.820Z,96960.34
2023-04-28T10:02:35.795Z,96964.40
2023-04-28T10:05:04.498Z,96966.01
2023-04-28T10:07:37.765Z,96968.81
2023-04-28T10:10:16.623Z,96961.07
2023-04-28T10:12:50.781Z,96957.60
2023-04-28T10:15:24.539Z,96963.45
2023-04-28T10:18:02.011Z,96973.71
2023-04-28T10:20:45.295Z,96985.16
2023-04-28T10:24:19.717Z,96976.20
2023-04-28T10:27:54.105Z,96970.29
2023-04-28T10:30:43.874Z,96972.21
2023-04-28T10:33:26.324Z,96969.23
2023-04-28T10:36:05.345Z,96968.77
2023-04-28T10:39:34.107Z,96958.61
2023-04-28T10:42:15.969Z,96961.23
2023-04-28T10:44:48.932Z,96950.74
2023-04-28T10:47:23.929Z,96930.63
2023-04-28T10:50:20.139Z,96917.52
2023-04-28T10:52:53.916Z,96923.08
2023-04-28T10:55:40.537Z,96930.43
2023-04-28T10:58:41.443Z,96940.48
2023-04-28T11:01:47.315Z,96955.47
2023-04-28T11:04:20.315Z,96976.02
2023-04-28T11:07:14.825Z,96987.92
2023-04-28T11:09:55.635Z,96981.83
2023-04-28T11:12:28.410Z,96985.65
2023-04-28T11:15:35.630Z,97000.84
2023-04-28T11:18:58.132Z,97003.48
2023-04-28T11:22:09.338Z,97015.42
2023-04-28T11:25:23.055Z,97030.52
2023-04-28T11:29:19.724Z,97032.89
2023-04-28T11:33:19.621Z,97028.42
2023-04-28T11:37:12.948Z,97030.83
2023-04-28T11:40:21.928Z,97042.34
2023-04-28T11:44:47.383Z,97042.28
2023-04-28T11:48:27.099Z,97051.39
2023-04-28T11:55:02.726Z,97072.34
2023-04-28T12:11:06.658Z,97067.39
2023-04-28T12:14:29.366Z,97069.42
2023-04-28T12:17:10.529Z,97060.59
2023-04-28T12:20:36.860Z,97061.01
2023-04-28T12:24:43.118Z,97047.60
2023-04-28T12:28:06.243Z,97036.79
2023-04-28T12:35:56.567Z,97014.33
2023-04-28T12:40:21.328Z,97017.70
2023-04-28T12:43:49.746Z,97029.55
2023-04-28T12:46:38.322Z,97040.04
2023-04-28T12:49:33.072Z,97038.27
2023-04-28T12:52:46.489Z,97021.81
2023-04-28T13:02:59.154Z,96995.91
2023-04-28T13:14:46.522Z,97016.33
2023-04-28T13:18:22.529Z,97007.08
2023-04-28T13:22:21.674Z,96991.69
2023-04-28T13:32:58.253Z,96980.13
2023-04-28T13:36:06.278Z,96972.15
2023-04-28T13:39:21.345Z,96959.94
2023-04-28T13:43:08.593Z,96958.79
2023-04-28T13:46:28.074Z,96964.98
2023-04-28T13:58:05.535Z,96992.77
2023-04-28T14:17:51.701Z,96974.81
2023-04-28T14:52:19.670Z,96960.92
2023-04-28T14:56:41.643Z,96946.98
2023-04-28T15:00:45.933Z,96954.67
2023-04-28T15:04:05.528Z,96957.72
2023-04-28T15:07:33.942Z,96966.10
2023-04-28T15:10:09.772Z,96956.89
2023-04-28T15:13:18.083Z,96955.45
2023-04-28T15:16:58.576Z,96959.56
2023-04-28T15:20:17.443Z,96960.30
2023-04-28T15:22:49.421Z,96954.61
2023-04-28T15:26:02.300Z,96964.38
2023-04-28T15:29:02.166Z,96971.37
2023-04-28T15:34:54.130Z,96985.13
2023-04-28T15:38:51.309Z,96989.07
2023-04-28T15:41:57.070Z,96990.36
2023-04-28T15:44:34.647Z,96995.23
2023-04-28T15:47:02.857Z,96995.20
2023-04-28T15:49:36.140Z,96992.24
2023-04-28T15:52:14.225Z,96988.84
2023-04-28T15:54:50.439Z,96980.48
2023-04-28T15:57:32.024Z,96977.60
2023-04-28T16:00:00.942Z,96982.75
2023-04-28T16:02:40.013Z,96986.32
2023-04-28T16:05:11.848Z,96987.14
2023-04-28T16:07:48.630Z,96992.68
2023-04-28T16:10:24.147Z,97000.09
2023-04-28T16:13:12.467Z,97009.60
2023-04-28T16:15:50.885Z,97012.50
2023-04-28T16:18:41.844Z,97016.61
2023-04-28T16:22:02.256Z,97018.98
2023-04-28T16:24:56.140Z,97019.85
2023-04-28T16:27:34.774Z,97014.60
2023-04-28T16:30:07.651Z,97014.25
2023-04-28T16:32:41.514Z,97014.82
2023-04-28T16:35:53.813Z,97017.39
2023-04-28T16:38:46.323Z,97012.00
2023-04-28T16:41:26.144Z,97016.80
2023-04-28T16:43:55.938Z,97027.39
2023-04-28T16:46:26.908Z,97036.12
2023-04-28T16:49:21.259Z,97037.84
2023-04-28T16:52:08.638Z,97040.47
2023-04-28T16:54:55.658Z,97047.89
2023-04-28T16:57:49.055Z,97055.28
2023-04-28T17:00:24.515Z,97061.52
2023-04-28T17:02:57.123Z,97063.24
2023-04-28T17:06:19.469Z,97070.02
2023-04-28T17:09:48.662Z,97069.88
2023-04-28T17:12:27.526Z,97072.30
2023-04-28T17:15:11.442Z,97075.35
2023-04-28T17:17:40.222Z,97074.55
2023-04-28T17:20:08.651Z,97075.86
2023-04-28T17:23:52.826Z,97085.90
2023-04-28T17:27:41.413Z,97089.83
2023-04-28T17:30:52.001Z,97101.68
2023-04-28T17:35:15.795Z,97108.93
2023-04-28T17:39:01.934Z,97123.66
2023-04-28T17:43:22.462Z,97131.38
2023-04-28T17:46:47.155Z,97134.92
2023-04-28T17:50:30.791Z,97149.02
2023-04-28T17:53:43.111Z,97155.14
2023-04-28T18:04:37.909Z,97169.05
2023-04-28T18:09:06.991Z,97168.91
2023-04-28T18:20:01.048Z,97177.11
2023-04-28T18:24:04.185Z,97175.23
2023-04-28T18:32:15.318Z,97175.90
2023-04-28T18:40:38.706Z,97169.73
2023-04-28T18:52:16.449Z,97165.63
2023-04-28T19:00:07.678Z,97165.40
2023-04-28T19:10:42.938Z,97177.17
2023-04-28T19:17:44.579Z,97182.21
2023-04-28T19:21:57.598Z,97180.08
2023-04-28T19:25:40.961Z,97181.73
2023-04-28T19:30:23.791Z,97182.34
2023-04-28T19:38:18.240Z,97198.33
2023-04-28T19:41:29.917Z,97200.80
2023-04-28T19:49:27.654Z,97199.66
2023-04-28T20:08:24.052Z,97207.45
2023-04-28T20:12:09.978Z,97205.90
2023-04-28T20:15:41.057Z,97203.79
2023-04-28T20:58:31.121Z,97178.05
2023-04-28T21:42:15.102Z,97187.28
2023-04-28T22:14:01.283Z,97197.17
